Bromley, Kentucky
Current Conditions -  °F | °C
As of 1:34 PM on Monday 22 Dec 2014 (Local Time) from KI69 Reporting Station
Clear Clear  
Wind Chill: 52°   Ceiling: Unl
Heat Index: 52°   Visibility: 10mi
Dew Point: 37°   Wind: 5mph
Humidity: 58%   Direction: 130°SE
Pressure: 29.9"   Gusts: NA
Location:  39.0279°N, 84.5635°W
Report Text: KI69 221834Z AUTO 13004KT 10SM CLR 11/03 A2990 RMK AO1
Loading
Personal Weather Stations






























Interactive Weather Map New forecast layout! Learn more

10-Day Weather Forecast

Advertisements
Track Severe Weather on mobile